createdAt,value
2022-12-23T00:00:42.733Z,36.83
2022-12-23T00:03:46.418Z,34.97
2022-12-23T00:06:49.932Z,36.95
2022-12-23T00:09:53.543Z,34.72
2022-12-23T00:13:15.369Z,34.87
2022-12-23T00:16:19.022Z,33.55
2022-12-23T00:19:22.543Z,31.67
2022-12-23T00:22:45.970Z,34.40
2022-12-23T00:25:49.414Z,30.88
2022-12-23T00:28:55.307Z,32.33
2022-12-23T00:31:58.804Z,33.22
2022-12-23T00:35:02.386Z,33.20
2022-12-23T00:38:06.124Z,34.65
2022-12-23T00:41:36.557Z,31.40
2022-12-23T00:44:40.011Z,33.57
2022-12-23T00:48:03.393Z,32.58
2022-12-23T00:51:07.247Z,32.40
2022-12-23T00:54:10.872Z,34.03
2022-12-23T00:57:14.386Z,30.67
2022-12-23T01:00:18.546Z,31.97
2022-12-23T01:03:40.831Z,32.58
2022-12-23T01:06:44.602Z,31.30
2022-12-23T01:09:48.121Z,31.98
2022-12-23T01:12:51.637Z,30.98
2022-12-23T01:16:04.705Z,30.17
2022-12-23T01:19:08.203Z,30.92
2022-12-23T01:22:11.729Z,31.50
2022-12-23T01:25:15.254Z,32.88
2022-12-23T01:28:18.714Z,33.47
2022-12-23T01:31:22.839Z,32.23
2022-12-23T01:34:31.059Z,31.75
2022-12-23T01:37:37.867Z,32.25
2022-12-23T01:40:43.834Z,33.00
2022-12-23T01:43:52.195Z,32.00
2022-12-23T01:46:55.683Z,29.83
2022-12-23T01:50:19.414Z,31.65
2022-12-23T01:53:26.236Z,31.55
2022-12-23T01:56:40.033Z,31.83
2022-12-23T02:00:03.232Z,30.88
2022-12-23T02:03:27.477Z,33.47
2022-12-23T02:07:04.578Z,31.73
2022-12-23T02:10:09.064Z,33.08
2022-12-23T02:14:10.043Z,30.35
2022-12-23T02:17:40.289Z,30.45
2022-12-23T02:21:20.605Z,31.30
2022-12-23T02:24:55.808Z,30.17
2022-12-23T02:28:37.388Z,32.40
2022-12-23T02:31:53.255Z,31.17
2022-12-23T02:35:33.501Z,32.33
2022-12-23T02:38:52.279Z,31.67
2022-12-23T02:42:07.388Z,30.88
2022-12-23T02:45:33.377Z,32.88
2022-12-23T02:48:36.905Z,33.22
2022-12-23T02:51:50.313Z,32.50
2022-12-23T02:54:59.349Z,31.20
2022-12-23T02:58:08.395Z,31.67
2022-12-23T03:01:15.118Z,33.15
2022-12-23T03:04:18.661Z,33.72
2022-12-23T03:07:41.580Z,34.60
2022-12-23T03:11:10.880Z,31.27
2022-12-23T03:14:58.801Z,32.95
2022-12-23T03:18:08.189Z,32.50
2022-12-23T03:21:32.073Z,33.58
2022-12-23T03:24:47.655Z,33.85
2022-12-23T03:28:17.072Z,33.07
2022-12-23T03:31:29.274Z,35.22
2022-12-23T03:34:38.444Z,35.20
2022-12-23T03:37:46.364Z,35.17
2022-12-23T03:41:02.784Z,36.28
2022-12-23T03:44:25.086Z,35.97
2022-12-23T03:47:38.175Z,35.95
2022-12-23T03:50:47.879Z,36.08
2022-12-23T03:53:58.033Z,37.25
2022-12-23T03:57:05.735Z,37.22
2022-12-23T04:00:09.940Z,35.63
2022-12-23T04:03:23.285Z,36.78
2022-12-23T04:06:30.638Z,38.13
2022-12-23T04:09:35.359Z,38.63
2022-12-23T04:12:39.535Z,37.35
2022-12-23T04:15:43.663Z,35.43
2022-12-23T04:18:47.237Z,38.30
2022-12-23T04:21:51.136Z,36.65
2022-12-23T04:24:54.603Z,38.22
2022-12-23T04:27:58.066Z,36.20
2022-12-23T04:31:01.610Z,36.33
2022-12-23T04:34:05.130Z,37.88
2022-12-23T04:37:08.612Z,36.58
2022-12-23T04:40:12.539Z,35.65
2022-12-23T04:43:16.179Z,34.42
2022-12-23T04:46:19.760Z,34.83
2022-12-23T04:49:23.250Z,36.08
2022-12-23T04:52:26.716Z,37.92
2022-12-23T04:55:30.178Z,37.05
2022-12-23T04:58:33.789Z,36.53
2022-12-23T05:01:37.430Z,37.50
2022-12-23T05:04:41.144Z,38.80
2022-12-23T05:07:44.636Z,37.72
2022-12-23T05:10:49.630Z,36.85
2022-12-23T05:13:53.065Z,37.10
2022-12-23T05:16:59.534Z,39.10
2022-12-23T05:20:06.083Z,38.17
2022-12-23T05:23:09.927Z,37.88
2022-12-23T05:26:13.476Z,35.55
2022-12-23T05:29:17.383Z,35.42
2022-12-23T05:32:20.788Z,35.80
2022-12-23T05:35:25.816Z,37.83
2022-12-23T05:38:29.425Z,36.75
2022-12-23T05:41:32.943Z,36.13
2022-12-23T05:44:36.356Z,37.10
2022-12-23T05:47:39.863Z,34.73
2022-12-23T05:50:45.371Z,33.67
2022-12-23T05:53:49.064Z,37.05
2022-12-23T05:56:52.587Z,35.92
2022-12-23T05:59:56.605Z,34.72
2022-12-23T06:03:00.398Z,36.07
2022-12-23T06:06:04.084Z,34.95
2022-12-23T06:09:09.459Z,32.88
2022-12-23T06:12:13.163Z,35.30
2022-12-23T06:15:16.659Z,34.28
2022-12-23T06:18:20.235Z,31.63
2022-12-23T06:21:25.560Z,33.70
2022-12-23T06:24:29.059Z,32.83
2022-12-23T06:27:32.611Z,55.17
2022-12-23T06:30:36.479Z,39.58
2022-12-23T06:33:40.110Z,55.73
2022-12-23T06:36:43.630Z,49.00
2022-12-23T06:39:47.284Z,44.42
2022-12-23T06:42:50.891Z,41.80
2022-12-23T06:45:54.569Z,58.17
2022-12-23T06:48:58.192Z,43.03
2022-12-23T06:52:01.775Z,34.00
2022-12-23T06:55:05.757Z,32.90
2022-12-23T06:58:09.287Z,32.67
2022-12-23T07:01:14.371Z,34.20
2022-12-23T07:04:18.284Z,33.23
2022-12-23T07:07:21.816Z,33.67
2022-12-23T07:10:25.517Z,32.63
2022-12-23T07:13:29.621Z,32.05
2022-12-23T07:16:33.179Z,35.65
2022-12-23T07:19:36.776Z,33.50
2022-12-23T07:22:40.307Z,31.97
2022-12-23T07:25:44.245Z,34.38
2022-12-23T07:28:48.933Z,33.05
2022-12-23T07:31:53.308Z,30.38
2022-12-23T07:34:57.016Z,29.80
2022-12-23T07:38:00.564Z,29.80
2022-12-23T07:41:04.094Z,32.58
2022-12-23T07:44:08.924Z,33.00
2022-12-23T07:47:12.388Z,33.35
2022-12-23T07:50:17.318Z,36.17
2022-12-23T07:53:20.867Z,35.47
2022-12-23T07:56:24.519Z,33.42
2022-12-23T07:59:28.102Z,34.95
2022-12-23T08:02:31.739Z,32.92
2022-12-23T08:05:35.379Z,32.90
2022-12-23T08:08:40.554Z,35.23
2022-12-23T08:11:44.565Z,37.05
2022-12-23T08:14:48.608Z,33.75
2022-12-23T08:17:52.058Z,37.17
2022-12-23T08:21:04.452Z,36.90
2022-12-23T08:24:08.063Z,34.73
2022-12-23T08:27:11.471Z,32.28
2022-12-23T08:30:21.279Z,31.40
2022-12-23T08:33:24.729Z,34.90
2022-12-23T08:36:33.755Z,29.47
2022-12-23T08:39:37.447Z,30.67
2022-12-23T08:42:40.910Z,29.90
2022-12-23T08:45:44.908Z,29.10
2022-12-23T08:48:49.399Z,29.67
2022-12-23T08:51:53.483Z,31.93
2022-12-23T08:54:57.116Z,29.10
2022-12-23T08:58:00.617Z,29.02
2022-12-23T09:01:06.739Z,28.15
2022-12-23T09:04:10.498Z,28.02
2022-12-23T09:07:14.033Z,28.80
2022-12-23T09:10:19.330Z,28.30
2022-12-23T09:13:32.859Z,30.40
2022-12-23T09:16:39.198Z,28.75
2022-12-23T09:19:45.909Z,29.67
2022-12-23T09:22:53.793Z,29.43
2022-12-23T09:25:57.570Z,28.93
2022-12-23T09:29:01.090Z,31.08
2022-12-23T09:32:04.813Z,36.15
2022-12-23T09:35:08.514Z,31.30
2022-12-23T09:38:12.077Z,31.10
2022-12-23T09:41:30.728Z,28.20
2022-12-23T09:44:41.798Z,29.67
2022-12-23T09:47:45.851Z,30.25
2022-12-23T09:50:50.830Z,27.98
2022-12-23T09:54:05.859Z,30.37
2022-12-23T09:57:20.641Z,27.93
2022-12-23T10:00:26.361Z,28.92
2022-12-23T10:03:50.274Z,28.83
2022-12-23T10:07:06.023Z,27.52
2022-12-23T10:10:20.591Z,28.50
2022-12-23T10:13:39.515Z,28.13
2022-12-23T10:16:50.906Z,29.17
2022-12-23T10:19:59.977Z,26.15
2022-12-23T10:23:04.137Z,28.25
2022-12-23T10:26:24.278Z,35.33
2022-12-23T10:29:32.604Z,29.37
2022-12-23T10:32:57.250Z,26.55
2022-12-23T10:36:17.808Z,27.45
2022-12-23T10:39:45.650Z,26.90
2022-12-23T10:43:10.586Z,32.23
2022-12-23T10:47:04.499Z,39.33
2022-12-23T10:50:16.604Z,31.45
2022-12-23T10:54:05.826Z,28.85
2022-12-23T10:57:09.819Z,28.80
2022-12-23T11:00:21.637Z,27.13
2022-12-23T11:04:03.610Z,31.40
2022-12-23T11:07:42.834Z,31.10
2022-12-23T11:10:36.481Z,31.20
2022-12-23T11:13:42.787Z,36.72
2022-12-23T11:16:47.178Z,32.77
2022-12-23T11:20:10.230Z,30.43
2022-12-23T11:23:29.143Z,28.02
2022-12-23T11:26:32.917Z,27.90
2022-12-23T11:29:45.109Z,25.17
2022-12-23T11:32:48.936Z,25.00
2022-12-23T11:36:25.171Z,23.80
2022-12-23T11:39:36.975Z,25.88
2022-12-23T11:42:42.241Z,27.95
2022-12-23T11:45:45.736Z,30.95
2022-12-23T11:48:54.558Z,31.03
2022-12-23T11:52:06.174Z,34.40
2022-12-23T11:55:34.686Z,30.13
2022-12-23T11:58:48.666Z,35.70
2022-12-23T12:01:52.340Z,32.13
2022-12-23T12:05:07.079Z,28.90
2022-12-23T12:08:19.063Z,29.77
2022-12-23T12:11:30.001Z,28.75
2022-12-23T12:14:43.676Z,30.00
2022-12-23T12:17:49.945Z,26.33
2022-12-23T12:21:02.189Z,26.20
2022-12-23T12:24:28.469Z,26.90
2022-12-23T12:27:38.426Z,25.08
2022-12-23T12:30:58.051Z,22.52
2022-12-23T12:34:19.249Z,24.98
2022-12-23T12:37:44.112Z,26.13
2022-12-23T12:41:03.478Z,22.40
2022-12-23T12:44:22.120Z,21.10
2022-12-23T12:48:00.168Z,18.40
2022-12-23T12:51:28.420Z,18.73
2022-12-23T12:54:39.808Z,20.60
2022-12-23T12:57:43.445Z,21.20
2022-12-23T13:01:17.086Z,24.98
2022-12-23T13:04:40.405Z,29.65
2022-12-23T13:07:46.599Z,23.88
2022-12-23T13:11:22.134Z,22.37
2022-12-23T13:14:28.293Z,21.60
2022-12-23T13:17:47.877Z,22.33
2022-12-23T13:21:03.397Z,23.25
2022-12-23T13:24:39.644Z,25.48
2022-12-23T13:27:50.952Z,29.30
2022-12-23T13:31:12.523Z,27.40
2022-12-23T13:34:56.193Z,32.35
2022-12-23T13:38:18.478Z,26.67
2022-12-23T13:41:27.294Z,28.70
2022-12-23T13:44:33.199Z,34.67
2022-12-23T13:47:58.488Z,36.30
2022-12-23T13:51:32.709Z,30.73
2022-12-23T13:54:39.242Z,29.73
2022-12-23T13:58:11.456Z,45.30
2022-12-23T14:01:15.569Z,37.60
2022-12-23T14:04:57.887Z,35.00
2022-12-23T14:08:05.209Z,34.72
2022-12-23T14:11:22.101Z,34.85
2022-12-23T14:14:26.545Z,35.70
2022-12-23T14:17:50.403Z,33.03
2022-12-23T14:21:42.918Z,31.90
2022-12-23T14:25:01.357Z,41.63
2022-12-23T14:28:13.819Z,46.35
2022-12-23T14:31:46.063Z,43.33
2022-12-23T14:35:25.353Z,36.40
2022-12-23T14:38:33.202Z,34.13
2022-12-23T14:41:39.849Z,39.08
2022-12-23T14:44:46.690Z,36.58
2022-12-23T14:47:50.180Z,46.25
2022-12-23T14:51:02.928Z,34.63
2022-12-23T14:54:16.305Z,32.70
2022-12-23T14:57:34.961Z,30.27
2022-12-23T15:01:02.537Z,30.52
2022-12-23T15:04:33.514Z,31.05
2022-12-23T15:07:41.029Z,26.87
2022-12-23T15:10:46.390Z,32.97
2022-12-23T15:13:53.219Z,32.58
2022-12-23T15:16:56.718Z,32.10
2022-12-23T15:20:25.164Z,31.38
2022-12-23T15:23:29.093Z,31.93
2022-12-23T15:26:33.677Z,33.83
2022-12-23T15:29:37.257Z,38.30
2022-12-23T15:32:43.423Z,43.80
2022-12-23T15:35:47.748Z,41.35
2022-12-23T15:38:51.727Z,41.70
2022-12-23T15:41:55.970Z,50.33
2022-12-23T15:44:59.822Z,46.33
2022-12-23T15:48:05.388Z,43.10
2022-12-23T15:52:06.471Z,43.92
2022-12-23T15:55:33.094Z,43.43
2022-12-23T15:58:40.462Z,32.83
2022-12-23T16:01:44.113Z,29.45
2022-12-23T16:04:57.226Z,30.17
2022-12-23T16:08:24.596Z,30.25
2022-12-23T16:11:39.423Z,27.53
2022-12-23T16:14:50.015Z,30.60
2022-12-23T16:18:11.465Z,27.05
2022-12-23T16:21:16.107Z,26.52
2022-12-23T16:24:20.624Z,27.20
2022-12-23T16:27:40.750Z,25.73
2022-12-23T16:30:54.145Z,23.00
2022-12-23T16:33:58.688Z,27.00
2022-12-23T16:37:02.136Z,25.60
2022-12-23T16:40:14.455Z,24.73
2022-12-23T16:43:19.323Z,25.07
2022-12-23T16:46:23.963Z,24.63
2022-12-23T16:49:33.369Z,27.23
2022-12-23T16:52:37.305Z,25.23
2022-12-23T16:55:48.293Z,26.83
2022-12-23T16:58:55.453Z,27.27
2022-12-23T17:02:03.431Z,26.97
2022-12-23T17:05:08.008Z,24.92
2022-12-23T17:08:12.088Z,24.70
2022-12-23T17:11:34.710Z,25.80
2022-12-23T17:14:38.853Z,27.77
2022-12-23T17:17:42.309Z,35.83
2022-12-23T17:20:48.121Z,32.05
2022-12-23T17:23:54.702Z,26.60
2022-12-23T17:26:58.456Z,27.65
2022-12-23T17:30:02.356Z,25.47
2022-12-23T17:33:07.052Z,25.27
2022-12-23T17:36:11.943Z,25.17
2022-12-23T17:39:15.855Z,26.45
2022-12-23T17:42:25.603Z,24.58
2022-12-23T17:45:31.149Z,25.17
2022-12-23T17:48:34.720Z,28.03
2022-12-23T17:51:40.069Z,26.33
2022-12-23T17:54:44.243Z,26.50
2022-12-23T17:57:48.265Z,24.30
2022-12-23T18:00:52.642Z,25.10
2022-12-23T18:03:58.289Z,24.90
2022-12-23T18:07:01.758Z,24.63
2022-12-23T18:10:05.514Z,25.17
2022-12-23T18:13:14.368Z,22.67
2022-12-23T18:16:17.881Z,23.80
2022-12-23T18:19:21.739Z,24.57
2022-12-23T18:22:27.616Z,24.50
2022-12-23T18:25:31.721Z,28.55
2022-12-23T18:28:35.204Z,23.65
2022-12-23T18:31:50.563Z,23.33
2022-12-23T18:34:56.486Z,23.90
2022-12-23T18:38:01.206Z,24.88
2022-12-23T18:41:04.779Z,25.00
2022-12-23T18:44:21.119Z,24.83
2022-12-23T18:47:24.733Z,26.10
2022-12-23T18:50:28.729Z,26.17
2022-12-23T18:53:32.496Z,25.67
2022-12-23T18:56:36.029Z,26.63
2022-12-23T18:59:39.932Z,25.27
2022-12-23T19:02:43.813Z,24.67
2022-12-23T19:05:49.006Z,25.03
2022-12-23T19:08:52.503Z,24.20
2022-12-23T19:11:56.140Z,26.02
2022-12-23T19:14:59.644Z,24.60
2022-12-23T19:18:03.149Z,25.63
2022-12-23T19:21:07.093Z,29.27
2022-12-23T19:24:10.722Z,29.83
2022-12-23T19:27:14.193Z,30.90
2022-12-23T19:30:19.095Z,30.88
2022-12-23T19:33:22.593Z,33.10
2022-12-23T19:36:26.372Z,30.90
2022-12-23T19:39:30.023Z,30.45
2022-12-23T19:42:34.719Z,33.33
2022-12-23T19:45:38.271Z,29.75
2022-12-23T19:48:41.899Z,31.70
2022-12-23T19:51:45.384Z,32.03
2022-12-23T19:54:48.973Z,32.97
2022-12-23T19:57:52.578Z,31.55
2022-12-23T20:01:12.765Z,33.42
2022-12-23T20:04:16.345Z,37.10
2022-12-23T20:07:19.917Z,32.90
2022-12-23T20:10:24.877Z,32.30
2022-12-23T20:13:28.328Z,33.35
2022-12-23T20:16:33.534Z,34.92
2022-12-23T20:19:43.890Z,32.60
2022-12-23T20:22:49.607Z,32.20
2022-12-23T20:25:53.354Z,31.70
2022-12-23T20:28:58.511Z,30.70
2022-12-23T20:32:02.080Z,31.05
2022-12-23T20:35:06.576Z,31.27
2022-12-23T20:38:10.156Z,32.07
2022-12-23T20:41:16.932Z,32.92
2022-12-23T20:44:37.255Z,32.17
2022-12-23T20:47:41.105Z,36.53
2022-12-23T20:50:51.808Z,36.37
2022-12-23T20:53:59.905Z,39.03
2022-12-23T20:57:04.029Z,37.47
2022-12-23T21:00:08.155Z,40.03
2022-12-23T21:03:11.715Z,39.13
2022-12-23T21:06:15.215Z,37.17
2022-12-23T21:09:19.041Z,37.37
2022-12-23T21:12:22.530Z,38.25
2022-12-23T21:15:25.975Z,39.28
2022-12-23T21:18:29.583Z,39.53
2022-12-23T21:21:33.443Z,41.83
2022-12-23T21:24:36.872Z,39.20
2022-12-23T21:27:41.718Z,39.42
2022-12-23T21:30:48.901Z,40.03
2022-12-23T21:33:53.134Z,40.22
2022-12-23T21:36:56.656Z,42.63
2022-12-23T21:40:00.166Z,39.87
2022-12-23T21:43:08.492Z,37.53
2022-12-23T21:46:17.781Z,39.58
2022-12-23T21:49:21.535Z,38.13
2022-12-23T21:52:25.112Z,40.13
2022-12-23T21:55:28.588Z,40.63
2022-12-23T21:58:33.375Z,38.80
2022-12-23T22:01:36.872Z,41.00
2022-12-23T22:04:40.797Z,41.92
2022-12-23T22:07:44.292Z,38.73
2022-12-23T22:10:52.439Z,37.97
2022-12-23T22:14:00.139Z,38.33
2022-12-23T22:17:03.631Z,39.70
2022-12-23T22:20:07.924Z,36.35
2022-12-23T22:23:11.324Z,40.43
2022-12-23T22:26:24.244Z,38.77
2022-12-23T22:29:29.028Z,35.38
2022-12-23T22:32:33.951Z,34.88
2022-12-23T22:35:40.006Z,33.35
2022-12-23T22:38:44.123Z,31.93
2022-12-23T22:41:47.733Z,35.80
2022-12-23T22:44:51.141Z,39.20
2022-12-23T22:47:54.567Z,34.72
2022-12-23T22:51:13.111Z,35.00
2022-12-23T22:54:16.582Z,33.80
2022-12-23T22:57:20.103Z,34.07
2022-12-23T23:00:26.835Z,34.85
2022-12-23T23:03:30.561Z,32.67
2022-12-23T23:06:38.142Z,31.75
2022-12-23T23:09:41.917Z,31.23
2022-12-23T23:12:45.541Z,30.60
2022-12-23T23:15:49.470Z,29.63
2022-12-23T23:18:53.906Z,28.25
2022-12-23T23:21:57.415Z,29.65
2022-12-23T23:25:00.884Z,29.60
2022-12-23T23:28:04.961Z,26.67
2022-12-23T23:34:32.784Z,32.47
2022-12-23T23:37:36.177Z,29.30
2022-12-23T23:40:41.703Z,28.37
2022-12-23T23:43:45.333Z,29.30
2022-12-23T23:46:48.899Z,30.35
2022-12-23T23:49:52.359Z,32.60
2022-12-23T23:52:56.790Z,34.10
2022-12-23T23:56:05.130Z,32.17
2022-12-23T23:59:09.291Z,30.73
